createdAt,value
2019-03-09T00:00:02.635Z,87.92
2019-03-09T00:01:02.598Z,88.12
2019-03-09T00:02:02.625Z,87.92
2019-03-09T00:03:02.609Z,87.81
2019-03-09T00:04:02.566Z,88.70
2019-03-09T00:05:02.520Z,88.53
2019-03-09T00:06:02.578Z,88.74
2019-03-09T00:07:02.494Z,88.53
2019-03-09T00:08:02.481Z,89.25
2019-03-09T00:09:02.468Z,88.95
2019-03-09T00:10:02.466Z,89.25
2019-03-09T00:11:07.332Z,88.84
2019-03-09T00:12:02.439Z,89.36
2019-03-09T00:13:02.424Z,89.77
2019-03-09T00:14:02.432Z,89.46
2019-03-09T00:15:02.406Z,89.05
2019-03-09T00:16:02.389Z,88.74
2019-03-09T00:17:02.424Z,89.36
2019-03-09T00:18:02.384Z,89.15
2019-03-09T00:19:02.371Z,89.15
2019-03-09T00:20:02.377Z,90.19
2019-03-09T00:21:02.363Z,89.98
2019-03-09T00:22:02.394Z,89.87
2019-03-09T00:23:02.326Z,90.19
2019-03-09T00:24:02.312Z,89.46
2019-03-09T00:25:02.290Z,89.77
2019-03-09T00:26:03.209Z,90.43
2019-03-09T00:27:02.312Z,90.39
2019-03-09T00:28:02.251Z,90.02
2019-03-09T00:29:02.449Z,90.12
2019-03-09T00:30:02.241Z,90.19
2019-03-09T00:31:02.222Z,90.49
2019-03-09T00:32:02.284Z,89.77
2019-03-09T00:33:02.207Z,90.28
2019-03-09T00:34:02.187Z,88.95
2019-03-09T00:35:02.182Z,88.95
2019-03-09T00:36:02.193Z,89.56
2019-03-09T00:37:02.204Z,89.67
2019-03-09T00:38:02.173Z,88.95
2019-03-09T00:39:02.136Z,89.15
2019-03-09T00:40:02.149Z,89.15
2019-03-09T00:41:02.118Z,89.25
2019-03-09T00:42:02.144Z,89.67
2019-03-09T00:43:02.114Z,89.56
2019-03-09T00:44:02.092Z,89.98
2019-03-09T00:45:02.108Z,90.08
2019-03-09T00:46:02.078Z,90.08
2019-03-09T00:47:03.866Z,90.59
2019-03-09T00:48:02.045Z,90.53
2019-03-09T00:49:02.021Z,89.98
2019-03-09T00:50:02.106Z,90.28
2019-03-09T00:51:02.008Z,90.91
2019-03-09T00:52:05.205Z,90.19
2019-03-09T00:53:02.001Z,89.56
2019-03-09T00:54:01.971Z,89.77
2019-03-09T00:55:02.060Z,89.77
2019-03-09T00:56:01.955Z,89.98
2019-03-09T00:57:02.070Z,90.19
2019-03-09T00:58:05.215Z,90.19
2019-03-09T00:59:01.936Z,89.67
2019-03-09T01:00:01.929Z,90.28
2019-03-09T01:01:01.916Z,90.80
2019-03-09T01:02:02.124Z,91.63
2019-03-09T01:03:01.942Z,91.67
2019-03-09T01:04:01.875Z,90.43
2019-03-09T01:05:01.844Z,90.08
2019-03-09T01:06:01.836Z,89.67
2019-03-09T01:07:01.822Z,90.28
2019-03-09T01:08:01.871Z,90.28
2019-03-09T01:09:01.859Z,90.91
2019-03-09T01:10:01.791Z,90.91
2019-03-09T01:11:01.781Z,90.59
2019-03-09T01:12:01.794Z,90.70
2019-03-09T01:13:01.905Z,91.73
2019-03-09T01:14:01.749Z,91.42
2019-03-09T01:15:01.738Z,91.56
2019-03-09T01:16:01.732Z,91.56
2019-03-09T01:17:02.693Z,91.46
2019-03-09T01:18:02.440Z,91.42
2019-03-09T01:19:01.686Z,92.29
2019-03-09T01:20:01.692Z,92.76
2019-03-09T01:21:01.670Z,92.55
2019-03-09T01:22:01.660Z,92.19
2019-03-09T01:23:03.236Z,91.73
2019-03-09T01:24:01.835Z,92.14
2019-03-09T01:25:01.650Z,92.50
2019-03-09T01:26:01.611Z,92.60
2019-03-09T01:27:01.669Z,92.60
2019-03-09T01:28:01.716Z,92.60
2019-03-09T01:29:02.363Z,92.70
2019-03-09T01:30:01.583Z,93.12
2019-03-09T01:31:01.553Z,93.12
2019-03-09T01:32:01.546Z,93.53
2019-03-09T01:33:01.791Z,93.84
2019-03-09T01:34:04.211Z,93.32
2019-03-09T01:35:02.388Z,93.01
2019-03-09T01:36:01.531Z,93.32
2019-03-09T01:37:01.602Z,93.63
2019-03-09T01:38:01.583Z,93.53
2019-03-09T01:39:02.514Z,93.94
2019-03-09T01:40:01.461Z,93.84
2019-03-09T01:41:02.277Z,93.53
2019-03-09T01:42:01.457Z,93.53
2019-03-09T01:43:01.453Z,93.94
2019-03-09T01:44:02.390Z,93.94
2019-03-09T01:45:01.519Z,94.25
2019-03-09T01:46:01.394Z,94.87
2019-03-09T01:47:06.290Z,94.67
2019-03-09T01:48:02.321Z,94.46
2019-03-09T01:49:11.865Z,94.77
2019-03-09T01:50:01.471Z,94.87
2019-03-09T01:51:01.448Z,94.77
2019-03-09T01:52:02.299Z,94.87
2019-03-09T01:53:01.348Z,94.04
2019-03-09T01:54:01.310Z,94.97
2019-03-09T01:55:01.343Z,94.15
2019-03-09T01:56:01.295Z,93.94
2019-03-09T01:57:02.313Z,94.56
2019-03-09T01:58:01.379Z,94.46
2019-03-09T01:59:01.295Z,94.15
2019-03-09T02:00:01.281Z,94.04
2019-03-09T02:01:01.232Z,94.77
2019-03-09T02:02:01.222Z,94.56
2019-03-09T02:03:01.209Z,94.15
2019-03-09T02:04:01.255Z,95.28
2019-03-09T02:05:02.876Z,94.97
2019-03-09T02:06:01.492Z,95.28
2019-03-09T02:07:01.178Z,94.97
2019-03-09T02:08:01.193Z,95.39
2019-03-09T02:09:01.733Z,95.07
2019-03-09T02:10:02.868Z,95.59
2019-03-09T02:11:02.157Z,95.49
2019-03-09T02:12:01.151Z,96.01
2019-03-09T02:13:01.104Z,95.49
2019-03-09T02:14:01.091Z,95.80
2019-03-09T02:15:01.075Z,96.01
2019-03-09T02:16:01.133Z,95.70
2019-03-09T02:17:01.132Z,95.80
2019-03-09T02:18:01.037Z,95.90
2019-03-09T02:19:01.049Z,96.27
2019-03-09T02:20:01.181Z,96.21
2019-03-09T02:21:01.049Z,96.48
2019-03-09T02:22:00.999Z,96.37
2019-03-09T02:23:00.986Z,96.48
2019-03-09T02:24:03.699Z,96.42
2019-03-09T02:25:00.974Z,96.99
2019-03-09T02:26:00.988Z,96.17
2019-03-09T02:27:00.976Z,96.69
2019-03-09T02:28:01.929Z,96.17
2019-03-09T02:29:01.702Z,96.48
2019-03-09T02:30:01.010Z,96.99
2019-03-09T02:31:04.236Z,96.69
2019-03-09T02:32:01.200Z,97.09
2019-03-09T02:33:00.883Z,97.09
2019-03-09T02:34:00.889Z,96.99
2019-03-09T02:35:01.738Z,96.99
2019-03-09T02:36:01.892Z,96.58
2019-03-09T02:37:00.835Z,96.89
2019-03-09T02:38:00.922Z,97.20
2019-03-09T02:39:00.833Z,97.20
2019-03-09T02:40:00.802Z,97.30
2019-03-09T02:41:02.383Z,96.99
2019-03-09T02:42:05.697Z,97.20
2019-03-09T02:43:01.759Z,97.41
2019-03-09T02:44:00.842Z,97.20
2019-03-09T02:45:00.790Z,97.09
2019-03-09T02:46:00.733Z,97.41
2019-03-09T02:47:06.012Z,97.61
2019-03-09T02:48:00.801Z,97.51
2019-03-09T02:49:00.716Z,97.05
2019-03-09T02:50:00.706Z,96.74
2019-03-09T02:51:00.679Z,97.16
2019-03-09T02:52:00.800Z,96.95
2019-03-09T02:53:00.675Z,96.64
2019-03-09T02:54:00.845Z,97.05
2019-03-09T02:55:00.660Z,97.16
2019-03-09T02:56:00.824Z,96.74
2019-03-09T02:57:00.648Z,97.56
2019-03-09T02:58:00.715Z,97.56
2019-03-09T02:59:00.612Z,97.47
2019-03-09T03:00:01.415Z,97.67
2019-03-09T03:01:00.640Z,97.42
2019-03-09T03:02:00.674Z,97.05
2019-03-09T03:03:00.615Z,96.95
2019-03-09T03:04:00.546Z,97.26
2019-03-09T03:05:00.544Z,97.31
2019-03-09T03:06:00.510Z,97.56
2019-03-09T03:07:00.557Z,97.56
2019-03-09T03:08:00.529Z,97.77
2019-03-09T03:09:00.478Z,97.47
2019-03-09T03:10:00.521Z,97.11
2019-03-09T03:11:01.191Z,97.11
2019-03-09T03:12:00.485Z,97.47
2019-03-09T03:13:02.391Z,97.16
2019-03-09T03:14:00.420Z,97.11
2019-03-09T03:15:00.485Z,97.11
2019-03-09T03:16:00.457Z,97.63
2019-03-09T03:17:00.509Z,97.63
2019-03-09T03:18:02.379Z,97.21
2019-03-09T03:19:00.369Z,96.70
2019-03-09T03:20:00.490Z,97.31
2019-03-09T03:21:00.354Z,97.52
2019-03-09T03:22:00.382Z,97.31
2019-03-09T03:23:00.414Z,97.63
2019-03-09T03:24:00.331Z,96.91
2019-03-09T03:25:00.453Z,97.21
2019-03-09T03:26:00.359Z,97.21
2019-03-09T03:27:01.322Z,97.21
2019-03-09T03:28:00.300Z,97.83
2019-03-09T03:29:12.953Z,97.94
2019-03-09T03:30:00.546Z,97.52
2019-03-09T03:31:00.396Z,97.63
2019-03-09T03:32:00.283Z,97.42
2019-03-09T03:33:00.221Z,97.31
2019-03-09T03:34:01.930Z,97.83
2019-03-09T03:35:00.715Z,97.42
2019-03-09T03:36:00.314Z,97.73
2019-03-09T03:37:00.484Z,96.75
2019-03-09T03:38:00.301Z,97.48
2019-03-09T03:39:04.905Z,97.63
2019-03-09T03:40:00.339Z,97.63
2019-03-09T03:41:00.133Z,98.03
2019-03-09T03:42:00.209Z,97.31
2019-03-09T03:43:00.142Z,97.17
2019-03-09T03:44:00.511Z,96.75
2019-03-09T03:45:00.157Z,97.58
2019-03-09T03:46:00.081Z,97.31
2019-03-09T03:47:00.072Z,97.27
2019-03-09T03:48:00.110Z,97.06
2019-03-09T03:49:04.173Z,97.06
2019-03-09T03:50:00.031Z,96.66
2019-03-09T03:51:00.007Z,96.96
2019-03-09T03:52:00.082Z,96.86
2019-03-09T03:52:59.987Z,97.06
2019-03-09T03:54:00.173Z,96.75
2019-03-09T03:55:00.029Z,97.06
2019-03-09T03:55:59.952Z,96.34
2019-03-09T03:57:00.461Z,96.55
2019-03-09T03:58:00.089Z,96.55
2019-03-09T03:58:59.921Z,96.34
2019-03-09T04:00:01.903Z,95.58
2019-03-09T04:00:59.926Z,95.48
2019-03-09T04:01:59.889Z,95.17
2019-03-09T04:02:59.890Z,95.27
2019-03-09T04:03:59.882Z,95.58
2019-03-09T04:04:59.871Z,95.68
2019-03-09T04:06:01.427Z,95.17
2019-03-09T04:06:59.832Z,94.71
2019-03-09T04:07:59.852Z,94.96
2019-03-09T04:08:59.818Z,94.81
2019-03-09T04:09:59.794Z,94.76
2019-03-09T04:11:06.022Z,95.27
2019-03-09T04:11:59.774Z,95.68
2019-03-09T04:12:59.772Z,95.48
2019-03-09T04:13:59.757Z,95.58
2019-03-09T04:14:59.857Z,95.58
2019-03-09T04:15:59.805Z,95.58
2019-03-09T04:17:00.709Z,96.30
2019-03-09T04:17:59.824Z,96.20
2019-03-09T04:18:59.718Z,96.30
2019-03-09T04:19:59.811Z,96.61
2019-03-09T04:21:02.763Z,97.58
2019-03-09T04:21:59.670Z,97.13
2019-03-09T04:22:59.667Z,97.23
2019-03-09T04:23:59.948Z,97.95
2019-03-09T04:24:59.635Z,97.33
2019-03-09T04:26:01.442Z,97.43
2019-03-09T04:26:59.796Z,97.53
2019-03-09T04:27:59.660Z,97.13
2019-03-09T04:28:59.597Z,96.46
2019-03-09T04:29:59.597Z,96.77
2019-03-09T04:31:00.502Z,96.97
2019-03-09T04:31:59.736Z,96.71
2019-03-09T04:32:59.573Z,95.53
2019-03-09T04:33:59.598Z,95.12
2019-03-09T04:34:59.532Z,94.81
2019-03-09T04:35:59.587Z,94.51
2019-03-09T04:36:59.589Z,95.23
2019-03-09T04:37:59.511Z,95.23
2019-03-09T04:39:00.063Z,95.33
2019-03-09T04:40:00.473Z,95.33
2019-03-09T04:40:59.458Z,95.95
2019-03-09T04:41:59.544Z,95.23
2019-03-09T04:43:00.508Z,94.60
2019-03-09T04:43:59.619Z,94.81
2019-03-09T04:44:59.425Z,95.02
2019-03-09T04:45:59.416Z,95.53
2019-03-09T04:46:59.496Z,94.60
2019-03-09T04:48:01.466Z,94.81
2019-03-09T04:48:59.660Z,95.23
2019-03-09T04:49:59.376Z,94.46
2019-03-09T04:50:59.364Z,93.64
2019-03-09T04:51:59.360Z,93.43
2019-03-09T04:52:59.387Z,93.43
2019-03-09T04:54:00.944Z,94.15
2019-03-09T04:54:59.315Z,94.40
2019-03-09T04:56:00.688Z,94.09
2019-03-09T04:56:59.372Z,93.84
2019-03-09T04:57:59.332Z,94.71
2019-03-09T04:59:04.437Z,94.30
2019-03-09T04:59:59.289Z,93.84
2019-03-09T05:00:59.417Z,94.36
2019-03-09T05:01:59.501Z,93.68
2019-03-09T05:02:59.239Z,93.54
2019-03-09T05:03:59.322Z,93.23
2019-03-09T05:04:59.228Z,93.16
2019-03-09T05:05:59.206Z,93.88
2019-03-09T05:06:59.175Z,93.43
2019-03-09T05:07:59.365Z,92.76
2019-03-09T05:08:59.187Z,92.65
2019-03-09T05:09:59.247Z,91.93
2019-03-09T05:10:59.138Z,91.99
2019-03-09T05:11:59.183Z,92.61
2019-03-09T05:12:59.118Z,92.34
2019-03-09T05:13:59.187Z,91.42
2019-03-09T05:14:59.950Z,91.38
2019-03-09T05:15:59.082Z,92.24
2019-03-09T05:16:59.230Z,92.03
2019-03-09T05:17:59.942Z,92.65
2019-03-09T05:18:59.118Z,92.38
2019-03-09T05:19:59.044Z,92.69
2019-03-09T05:20:59.062Z,92.34
2019-03-09T05:21:59.131Z,92.24
2019-03-09T05:22:59.141Z,91.93
2019-03-09T05:23:59.023Z,92.34
2019-03-09T05:24:58.982Z,92.34
2019-03-09T05:25:59.075Z,92.55
2019-03-09T05:27:00.788Z,92.14
2019-03-09T05:27:59.014Z,91.93
2019-03-09T05:28:59.086Z,91.52
2019-03-09T05:29:58.929Z,91.11
2019-03-09T05:31:00.927Z,91.52
2019-03-09T05:31:58.899Z,91.00
2019-03-09T05:32:59.028Z,91.52
2019-03-09T05:33:58.906Z,91.42
2019-03-09T05:34:58.879Z,92.55
2019-03-09T05:35:58.901Z,92.38
2019-03-09T05:36:58.929Z,92.14
2019-03-09T05:37:58.924Z,92.65
2019-03-09T05:38:58.870Z,91.31
2019-03-09T05:39:58.828Z,91.42
2019-03-09T05:40:58.815Z,91.62
2019-03-09T05:41:58.800Z,92.24
2019-03-09T05:42:59.456Z,91.72
2019-03-09T05:43:58.790Z,91.93
2019-03-09T05:44:58.865Z,91.62
2019-03-09T05:45:59.066Z,91.52
2019-03-09T05:46:58.846Z,91.83
2019-03-09T05:47:59.437Z,91.93
2019-03-09T05:48:58.753Z,91.83
2019-03-09T05:49:58.700Z,91.93
2019-03-09T05:50:58.699Z,92.03
2019-03-09T05:51:58.683Z,92.14
2019-03-09T05:52:59.441Z,91.52
2019-03-09T05:53:58.658Z,92.34
2019-03-09T05:54:58.693Z,91.83
2019-03-09T05:55:58.650Z,91.72
2019-03-09T05:56:58.655Z,91.93
2019-03-09T05:57:59.682Z,91.52
2019-03-09T05:58:58.599Z,91.42
2019-03-09T05:59:58.697Z,91.72
2019-03-09T06:00:58.589Z,91.52
2019-03-09T06:01:58.571Z,91.21
2019-03-09T06:02:58.627Z,91.21
2019-03-09T06:04:00.238Z,90.69
2019-03-09T06:04:58.539Z,90.69
2019-03-09T06:05:58.532Z,91.31
2019-03-09T06:06:58.540Z,91.21
2019-03-09T06:07:58.508Z,91.31
2019-03-09T06:09:01.244Z,90.69
2019-03-09T06:09:59.496Z,91.31
2019-03-09T06:10:58.476Z,90.39
2019-03-09T06:11:58.466Z,90.28
2019-03-09T06:12:59.472Z,90.39
2019-03-09T06:13:58.454Z,90.49
2019-03-09T06:14:58.454Z,91.15
2019-03-09T06:15:58.510Z,90.69
2019-03-09T06:16:58.417Z,90.80
2019-03-09T06:17:58.407Z,90.80
2019-03-09T06:18:58.442Z,90.69
2019-03-09T06:19:58.420Z,90.39
2019-03-09T06:20:59.213Z,90.59
2019-03-09T06:21:58.348Z,90.08
2019-03-09T06:22:58.389Z,90.08
2019-03-09T06:23:59.947Z,90.49
2019-03-09T06:24:58.347Z,90.80
2019-03-09T06:25:58.410Z,89.77
2019-03-09T06:26:58.300Z,90.14
2019-03-09T06:27:58.287Z,89.01
2019-03-09T06:28:58.317Z,89.31
2019-03-09T06:29:58.285Z,89.01
2019-03-09T06:30:58.255Z,89.36
2019-03-09T06:31:58.257Z,89.36
2019-03-09T06:32:58.237Z,88.84
2019-03-09T06:33:58.286Z,89.25
2019-03-09T06:34:58.210Z,89.15
2019-03-09T06:35:58.205Z,89.36
2019-03-09T06:36:58.223Z,89.46
2019-03-09T06:37:58.206Z,89.15
2019-03-09T06:38:58.177Z,89.97
2019-03-09T06:39:58.206Z,89.97
2019-03-09T06:41:03.016Z,89.56
2019-03-09T06:41:59.242Z,89.56
2019-03-09T06:42:58.122Z,88.74
2019-03-09T06:43:58.116Z,88.95
2019-03-09T06:44:59.877Z,88.59
2019-03-09T06:45:58.093Z,88.02
2019-03-09T06:46:58.085Z,88.02
2019-03-09T06:47:58.122Z,88.02
2019-03-09T06:48:58.132Z,87.26
2019-03-09T06:49:58.088Z,87.67
2019-03-09T06:51:04.712Z,87.67
2019-03-09T06:51:58.052Z,87.57
2019-03-09T06:52:58.006Z,87.05
2019-03-09T06:53:58.715Z,87.98
2019-03-09T06:54:58.042Z,87.22
2019-03-09T06:55:57.976Z,86.70
2019-03-09T06:56:57.967Z,86.50
2019-03-09T06:57:58.836Z,86.40
2019-03-09T06:58:58.009Z,86.70
2019-03-09T06:59:57.997Z,86.29
2019-03-09T07:00:57.937Z,86.40
2019-03-09T07:01:57.913Z,86.50
2019-03-09T07:02:57.915Z,85.36
2019-03-09T07:03:58.071Z,85.16
2019-03-09T07:04:57.895Z,85.16
2019-03-09T07:05:57.950Z,85.06
2019-03-09T07:06:57.870Z,84.95
2019-03-09T07:07:57.862Z,84.85
2019-03-09T07:08:57.831Z,84.95
2019-03-09T07:09:58.050Z,85.36
2019-03-09T07:10:57.858Z,84.95
2019-03-09T07:11:57.957Z,85.06
2019-03-09T07:12:57.829Z,85.57
2019-03-09T07:13:57.781Z,86.80
2019-03-09T07:14:58.725Z,86.60
2019-03-09T07:15:58.932Z,86.29
2019-03-09T07:16:57.862Z,87.12
2019-03-09T07:17:57.895Z,86.70
2019-03-09T07:18:57.744Z,87.63
2019-03-09T07:19:57.797Z,87.32
2019-03-09T07:20:57.750Z,87.22
2019-03-09T07:21:57.731Z,87.38
2019-03-09T07:22:57.759Z,86.25
2019-03-09T07:23:57.680Z,86.15
2019-03-09T07:24:57.652Z,86.56
2019-03-09T07:25:57.643Z,86.66
2019-03-09T07:26:57.675Z,86.56
2019-03-09T07:27:57.628Z,86.25
2019-03-09T07:28:57.708Z,86.97
2019-03-09T07:29:57.620Z,86.66
2019-03-09T07:30:57.583Z,86.32
2019-03-09T07:31:57.647Z,87.13
2019-03-09T07:32:57.592Z,87.13
2019-03-09T07:33:57.567Z,87.24
2019-03-09T07:34:58.235Z,86.62
2019-03-09T07:35:57.567Z,86.42
2019-03-09T07:36:57.589Z,86.11
2019-03-09T07:37:57.577Z,87.24
2019-03-09T07:38:57.505Z,86.46
2019-03-09T07:40:00.335Z,87.38
2019-03-09T07:40:57.473Z,87.45
2019-03-09T07:41:57.511Z,87.34
2019-03-09T07:42:59.473Z,86.83
2019-03-09T07:43:57.437Z,87.34
2019-03-09T07:44:57.494Z,87.55
2019-03-09T07:45:57.461Z,86.66
2019-03-09T07:46:57.412Z,87.24
2019-03-09T07:47:57.504Z,87.24
2019-03-09T07:48:57.382Z,86.62
2019-03-09T07:49:57.433Z,86.32
2019-03-09T07:50:57.389Z,86.93
2019-03-09T07:51:57.376Z,86.32
2019-03-09T07:52:58.956Z,86.58
2019-03-09T07:53:57.348Z,86.38
2019-03-09T07:54:57.317Z,86.93
2019-03-09T07:55:57.372Z,85.66
2019-03-09T07:56:57.303Z,86.00
2019-03-09T07:57:57.320Z,85.35
2019-03-09T07:58:57.325Z,85.00
2019-03-09T07:59:57.277Z,85.55
2019-03-09T08:00:57.249Z,84.67
2019-03-09T08:01:57.360Z,85.25
2019-03-09T08:02:57.314Z,84.63
2019-03-09T08:03:57.218Z,84.74
2019-03-09T08:04:57.217Z,84.80
2019-03-09T08:05:57.231Z,84.08
2019-03-09T08:06:57.324Z,83.46
2019-03-09T08:07:57.985Z,83.15
2019-03-09T08:08:57.207Z,82.95
2019-03-09T08:09:57.159Z,83.46
2019-03-09T08:10:57.174Z,82.91
2019-03-09T08:11:57.130Z,82.19
2019-03-09T08:12:57.967Z,81.48
2019-03-09T08:13:57.228Z,81.06
2019-03-09T08:14:57.097Z,82.09
2019-03-09T08:15:57.118Z,82.19
2019-03-09T08:16:57.075Z,81.68
2019-03-09T08:17:57.130Z,82.19
2019-03-09T08:18:57.082Z,82.19
2019-03-09T08:19:57.047Z,82.33
2019-03-09T08:20:57.166Z,82.13
2019-03-09T08:21:57.108Z,81.82
2019-03-09T08:22:59.012Z,82.43
2019-03-09T08:23:57.021Z,82.13
2019-03-09T08:24:57.008Z,82.43
2019-03-09T08:25:57.024Z,81.96
2019-03-09T08:26:56.969Z,82.64
2019-03-09T08:27:57.031Z,82.43
2019-03-09T08:28:56.947Z,81.82
2019-03-09T08:29:56.945Z,82.33
2019-03-09T08:30:56.934Z,82.43
2019-03-09T08:31:56.952Z,82.23
2019-03-09T08:32:57.460Z,81.82
2019-03-09T08:33:56.907Z,82.13
2019-03-09T08:34:56.902Z,81.99
2019-03-09T08:35:56.898Z,82.19
2019-03-09T08:36:56.856Z,81.57
2019-03-09T08:37:56.912Z,81.51
2019-03-09T08:38:56.869Z,81.30
2019-03-09T08:39:56.832Z,81.62
2019-03-09T08:40:56.820Z,81.20
2019-03-09T08:41:56.823Z,81.10
2019-03-09T08:42:57.479Z,81.62
2019-03-09T08:43:57.734Z,81.27
2019-03-09T08:44:56.771Z,81.54
2019-03-09T08:45:56.768Z,81.43
2019-03-09T08:46:56.798Z,80.82
2019-03-09T08:48:00.228Z,81.02
2019-03-09T08:48:56.731Z,81.23
2019-03-09T08:49:56.777Z,80.78
2019-03-09T08:50:56.733Z,80.88
2019-03-09T08:51:56.725Z,79.96
2019-03-09T08:52:57.473Z,81.13
2019-03-09T08:53:56.714Z,80.88
2019-03-09T08:54:56.896Z,80.27
2019-03-09T08:55:56.654Z,80.17
2019-03-09T08:56:56.679Z,80.07
2019-03-09T08:57:57.490Z,79.96
2019-03-09T08:58:56.743Z,80.85
2019-03-09T08:59:56.772Z,80.68
2019-03-09T09:00:56.735Z,80.47
2019-03-09T09:01:56.589Z,80.03
2019-03-09T09:02:56.570Z,79.62
2019-03-09T09:03:56.613Z,79.55
2019-03-09T09:04:56.536Z,79.72
2019-03-09T09:05:56.547Z,79.00
2019-03-09T09:06:56.530Z,77.77
2019-03-09T09:07:56.548Z,78.39
2019-03-09T09:09:07.218Z,78.90
2019-03-09T09:09:56.482Z,79.00
2019-03-09T09:10:57.544Z,78.90
2019-03-09T09:11:56.457Z,78.28
2019-03-09T09:12:56.502Z,78.49
2019-03-09T09:14:00.471Z,79.11
2019-03-09T09:14:56.433Z,79.00
2019-03-09T09:15:56.420Z,79.11
2019-03-09T09:16:56.409Z,78.39
2019-03-09T09:17:57.228Z,78.70
2019-03-09T09:18:56.465Z,78.90
2019-03-09T09:19:56.461Z,78.39
2019-03-09T09:20:56.409Z,79.00
2019-03-09T09:21:56.354Z,79.00
2019-03-09T09:22:56.368Z,78.90
2019-03-09T09:23:56.390Z,78.28
2019-03-09T09:24:56.336Z,78.83
2019-03-09T09:25:56.327Z,78.86
2019-03-09T09:26:56.310Z,78.90
2019-03-09T09:27:56.393Z,78.19
2019-03-09T09:28:56.323Z,78.08
2019-03-09T09:29:56.264Z,77.98
2019-03-09T09:30:56.341Z,77.33
2019-03-09T09:31:56.309Z,76.85
2019-03-09T09:32:56.270Z,76.61
2019-03-09T09:33:58.402Z,75.93
2019-03-09T09:34:56.226Z,75.21
2019-03-09T09:35:56.324Z,75.10
2019-03-09T09:36:56.198Z,76.27
2019-03-09T09:37:56.217Z,76.88
2019-03-09T09:38:56.299Z,76.47
2019-03-09T09:39:56.203Z,76.20
2019-03-09T09:40:56.151Z,76.51
2019-03-09T09:41:56.126Z,75.89
2019-03-09T09:42:56.120Z,76.61
2019-03-09T09:43:56.164Z,76.61
2019-03-09T09:44:57.126Z,76.10
2019-03-09T09:45:56.120Z,76.40
2019-03-09T09:46:56.245Z,76.34
2019-03-09T09:47:56.062Z,76.31
2019-03-09T09:48:56.069Z,77.06
2019-03-09T09:49:58.060Z,76.95
2019-03-09T09:50:56.034Z,76.81
2019-03-09T09:51:56.065Z,76.95
2019-03-09T09:52:56.030Z,77.06
2019-03-09T09:53:55.999Z,77.36
2019-03-09T09:54:56.982Z,76.85
2019-03-09T09:55:56.044Z,77.06
2019-03-09T09:56:56.070Z,77.16
2019-03-09T09:57:56.051Z,76.75
2019-03-09T09:58:55.933Z,76.65
2019-03-09T09:59:55.997Z,77.16
2019-03-09T10:00:56.256Z,77.16
2019-03-09T10:01:55.989Z,75.62
2019-03-09T10:02:55.928Z,76.03
2019-03-09T10:03:55.902Z,76.65
2019-03-09T10:04:55.916Z,76.10
2019-03-09T10:05:55.901Z,75.99
2019-03-09T10:06:55.877Z,76.31
2019-03-09T10:07:56.022Z,76.20
2019-03-09T10:08:55.834Z,75.79
2019-03-09T10:09:56.485Z,75.99
2019-03-09T10:10:55.905Z,76.20
2019-03-09T10:11:56.228Z,76.72
2019-03-09T10:12:56.235Z,76.06
2019-03-09T10:13:55.779Z,76.51
2019-03-09T10:14:55.821Z,76.47
2019-03-09T10:15:55.757Z,77.09
2019-03-09T10:16:55.740Z,76.68
2019-03-09T10:17:55.736Z,76.57
2019-03-09T10:18:55.710Z,76.06
2019-03-09T10:20:01.490Z,76.27
2019-03-09T10:20:56.366Z,75.99
2019-03-09T10:21:55.780Z,76.17
2019-03-09T10:23:03.417Z,75.96
2019-03-09T10:23:56.673Z,75.86
2019-03-09T10:24:55.720Z,75.96
2019-03-09T10:25:55.635Z,75.31
2019-03-09T10:26:55.720Z,74.73
2019-03-09T10:27:55.625Z,74.60
2019-03-09T10:28:55.603Z,74.08
2019-03-09T10:29:55.678Z,74.08
2019-03-09T10:30:55.736Z,73.47
2019-03-09T10:31:55.668Z,72.75
2019-03-09T10:32:55.557Z,72.92
2019-03-09T10:33:55.548Z,72.55
2019-03-09T10:34:56.503Z,72.14
2019-03-09T10:35:55.576Z,72.24
2019-03-09T10:36:56.227Z,72.41
2019-03-09T10:37:55.519Z,72.41
2019-03-09T10:38:55.515Z,71.19
2019-03-09T10:39:56.194Z,72.55
2019-03-09T10:40:55.707Z,74.02
2019-03-09T10:41:55.693Z,73.40
2019-03-09T10:42:55.531Z,73.44
2019-03-09T10:43:55.761Z,73.03
2019-03-09T10:44:57.013Z,72.96
2019-03-09T10:45:55.430Z,73.74
2019-03-09T10:46:55.402Z,72.72
2019-03-09T10:47:55.411Z,72.92
2019-03-09T10:48:55.386Z,73.16
2019-03-09T10:49:55.448Z,73.47
2019-03-09T10:50:55.383Z,73.16
2019-03-09T10:51:55.340Z,73.47
2019-03-09T10:52:55.380Z,73.78
2019-03-09T10:53:55.320Z,72.86
2019-03-09T10:54:55.995Z,73.98
2019-03-09T10:55:55.309Z,73.44
2019-03-09T10:56:55.283Z,72.92
2019-03-09T10:57:55.278Z,72.92
2019-03-09T10:58:55.271Z,73.36
2019-03-09T10:59:58.741Z,73.54
2019-03-09T11:00:55.282Z,73.64
2019-03-09T11:01:55.296Z,72.41
2019-03-09T11:02:55.259Z,72.75
2019-03-09T11:03:55.297Z,72.45
2019-03-09T11:04:56.024Z,72.14
2019-03-09T11:05:55.202Z,72.52
2019-03-09T11:06:55.367Z,72.41
2019-03-09T11:07:55.233Z,72.21
2019-03-09T11:08:55.227Z,71.97
2019-03-09T11:09:56.029Z,72.00
2019-03-09T11:10:55.271Z,71.39
2019-03-09T11:11:55.305Z,71.36
2019-03-09T11:12:55.115Z,70.10
2019-03-09T11:13:55.124Z,70.00
2019-03-09T11:15:06.567Z,70.92
2019-03-09T11:15:55.078Z,69.89
2019-03-09T11:16:55.088Z,70.23
2019-03-09T11:17:55.284Z,71.15
2019-03-09T11:18:55.128Z,71.36
2019-03-09T11:19:55.125Z,72.00
2019-03-09T11:20:55.077Z,71.05
2019-03-09T11:21:55.020Z,71.87
2019-03-09T11:22:55.047Z,71.05
2019-03-09T11:23:55.078Z,71.05
2019-03-09T11:25:03.152Z,71.36
2019-03-09T11:26:00.075Z,71.29
2019-03-09T11:26:54.989Z,72.11
2019-03-09T11:27:54.945Z,72.21
2019-03-09T11:28:54.952Z,72.38
2019-03-09T11:29:55.034Z,73.10
2019-03-09T11:30:59.012Z,72.92
2019-03-09T11:31:54.962Z,72.00
2019-03-09T11:32:54.886Z,72.99
2019-03-09T11:33:54.868Z,71.70
2019-03-09T11:34:54.871Z,70.78
2019-03-09T11:35:54.892Z,71.12
2019-03-09T11:36:54.857Z,71.22
2019-03-09T11:37:54.827Z,72.28
2019-03-09T11:38:54.833Z,71.56
2019-03-09T11:39:54.910Z,72.04
2019-03-09T11:41:00.851Z,71.56
2019-03-09T11:41:55.142Z,71.46
2019-03-09T11:42:54.833Z,71.77
2019-03-09T11:43:54.760Z,70.34
2019-03-09T11:44:54.745Z,71.05
2019-03-09T11:45:56.904Z,70.84
2019-03-09T11:46:56.767Z,70.75
2019-03-09T11:47:57.325Z,70.34
2019-03-09T11:48:54.709Z,70.34
2019-03-09T11:49:54.696Z,69.93
2019-03-09T11:51:00.518Z,69.38
2019-03-09T11:51:54.668Z,68.97
2019-03-09T11:52:54.694Z,68.63
2019-03-09T11:53:54.648Z,69.28
2019-03-09T11:54:54.673Z,69.18
2019-03-09T11:55:55.514Z,70.30
2019-03-09T11:56:54.628Z,69.28
2019-03-09T11:57:54.657Z,69.93
2019-03-09T11:58:54.588Z,70.10
2019-03-09T11:59:54.610Z,70.43
2019-03-09T12:00:54.606Z,71.25
2019-03-09T12:01:54.823Z,70.92
2019-03-09T12:02:54.614Z,70.37
2019-03-09T12:03:54.839Z,69.24
2019-03-09T12:04:54.529Z,69.65
2019-03-09T12:06:08.203Z,70.00
2019-03-09T12:06:54.499Z,68.33
2019-03-09T12:07:54.505Z,69.42
2019-03-09T12:08:54.554Z,68.84
2019-03-09T12:09:54.473Z,70.30
2019-03-09T12:10:54.491Z,71.87
2019-03-09T12:11:54.532Z,71.97
2019-03-09T12:12:54.448Z,72.17
2019-03-09T12:13:54.437Z,71.59
2019-03-09T12:14:54.488Z,71.19
2019-03-09T12:15:59.319Z,72.00
2019-03-09T12:16:54.436Z,71.70
2019-03-09T12:17:54.391Z,72.00
2019-03-09T12:18:54.376Z,71.56
2019-03-09T12:19:54.404Z,71.09
2019-03-09T12:21:00.753Z,69.52
2019-03-09T12:21:54.413Z,67.90
2019-03-09T12:23:01.069Z,64.75
2019-03-09T12:23:55.480Z,67.32
2019-03-09T12:24:54.331Z,67.89
2019-03-09T12:25:54.426Z,69.01
2019-03-09T12:26:54.407Z,68.23
2019-03-09T12:27:54.275Z,68.77
2019-03-09T12:28:54.259Z,68.43
2019-03-09T12:29:54.273Z,67.85
2019-03-09T12:30:57.393Z,66.83
2019-03-09T12:31:54.361Z,65.58
2019-03-09T12:32:54.234Z,65.81
2019-03-09T12:33:54.196Z,66.63
2019-03-09T12:34:54.194Z,66.97
2019-03-09T12:36:12.694Z,67.89
2019-03-09T12:36:54.169Z,66.83
2019-03-09T12:37:54.305Z,66.86
2019-03-09T12:38:54.315Z,65.34
2019-03-09T12:39:54.137Z,63.15
2019-03-09T12:40:54.170Z,63.82
2019-03-09T12:41:54.727Z,65.13
2019-03-09T12:42:54.101Z,66.05
2019-03-09T12:43:54.122Z,65.58
2019-03-09T12:44:54.089Z,65.44
2019-03-09T12:46:01.759Z,65.74
2019-03-09T12:46:54.054Z,65.51
2019-03-09T12:47:54.050Z,66.28
2019-03-09T12:48:54.209Z,67.38
2019-03-09T12:49:54.030Z,67.00
2019-03-09T12:50:58.097Z,67.03
2019-03-09T12:51:54.006Z,67.54